sensor_id;sensor_type;location;lat;lon;timestamp;temperature;humidity
21104;DHT22;10710;53.398;-1.514;2022-11-20T00:01:14;8.50;99.90
21104;DHT22;10710;53.398;-1.514;2022-11-20T00:03:41;8.50;99.90
21104;DHT22;10710;53.398;-1.514;2022-11-20T00:06:15;8.50;99.90
21104;DHT22;10710;53.398;-1.514;2022-11-20T00:08:42;8.50;99.90
21104;DHT22;10710;53.398;-1.514;2022-11-20T00:11:14;8.50;99.90
21104;DHT22;10710;53.398;-1.514;2022-11-20T00:13:41;8.50;99.90
21104;DHT22;10710;53.398;-1.514;2022-11-20T00:16:10;8.50;99.90
21104;DHT22;10710;53.398;-1.514;2022-11-20T00:18:37;8.50;99.90
21104;DHT22;10710;53.398;-1.514;2022-11-20T00:21:09;8.50;99.90
21104;DHT22;10710;53.398;-1.514;2022-11-20T00:23:35;8.50;99.90
21104;DHT22;10710;53.398;-1.514;2022-11-20T00:26:03;8.50;99.90
21104;DHT22;10710;53.398;-1.514;2022-11-20T00:28:30;8.50;99.90
21104;DHT22;10710;53.398;-1.514;2022-11-20T00:31:04;8.50;99.90
21104;DHT22;10710;53.398;-1.514;2022-11-20T00:33:30;8.50;99.90
21104;DHT22;10710;53.398;-1.514;2022-11-20T00:36:04;8.40;99.90
21104;DHT22;10710;53.398;-1.514;2022-11-20T00:38:32;8.50;99.90
21104;DHT22;10710;53.398;-1.514;2022-11-20T00:41:00;8.50;99.90
21104;DHT22;10710;53.398;-1.514;2022-11-20T00:43:26;8.50;99.90
21104;DHT22;10710;53.398;-1.514;2022-11-20T00:46:00;8.50;99.90
21104;DHT22;10710;53.398;-1.514;2022-11-20T00:48:27;8.50;99.90
21104;DHT22;10710;53.398;-1.514;2022-11-20T00:50:54;8.50;99.90
21104;DHT22;10710;53.398;-1.514;2022-11-20T00:53:20;8.50;99.90
21104;DHT22;10710;53.398;-1.514;2022-11-20T00:56:14;8.50;99.90
21104;DHT22;10710;53.398;-1.514;2022-11-20T00:58:42;8.40;99.90
21104;DHT22;10710;53.398;-1.514;2022-11-20T01:01:14;8.50;99.90
21104;DHT22;10710;53.398;-1.514;2022-11-20T01:03:43;8.50;99.90
21104;DHT22;10710;53.398;-1.514;2022-11-20T01:06:11;8.50;99.90
21104;DHT22;10710;53.398;-1.514;2022-11-20T01:08:37;8.50;99.90
21104;DHT22;10710;53.398;-1.514;2022-11-20T01:11:10;8.40;99.90
21104;DHT22;10710;53.398;-1.514;2022-11-20T01:13:36;8.40;99.90
21104;DHT22;10710;53.398;-1.514;2022-11-20T01:18:34;8.40;99.90
21104;DHT22;10710;53.398;-1.514;2022-11-20T01:21:06;8.40;99.90
21104;DHT22;10710;53.398;-1.514;2022-11-20T01:23:34;8.40;99.90
21104;DHT22;10710;53.398;-1.514;2022-11-20T01:26:05;8.50;99.90
21104;DHT22;10710;53.398;-1.514;2022-11-20T01:28:32;8.50;99.90
21104;DHT22;10710;53.398;-1.514;2022-11-20T01:30:58;8.40;99.90
21104;DHT22;10710;53.398;-1.514;2022-11-20T01:33:25;8.50;99.90
21104;DHT22;10710;53.398;-1.514;2022-11-20T01:35:52;8.60;99.90
21104;DHT22;10710;53.398;-1.514;2022-11-20T01:38:18;8.60;99.90
21104;DHT22;10710;53.398;-1.514;2022-11-20T01:40:54;8.60;99.90
21104;DHT22;10710;53.398;-1.514;2022-11-20T01:43:21;8.60;99.90
21104;DHT22;10710;53.398;-1.514;2022-11-20T01:53:50;8.50;99.90
21104;DHT22;10710;53.398;-1.514;2022-11-20T01:56:18;8.40;99.90
21104;DHT22;10710;53.398;-1.514;2022-11-20T01:58:53;8.40;99.90
21104;DHT22;10710;53.398;-1.514;2022-11-20T02:01:22;8.40;99.90
21104;DHT22;10710;53.398;-1.514;2022-11-20T02:03:50;8.40;99.90
21104;DHT22;10710;53.398;-1.514;2022-11-20T02:06:39;8.40;99.90
21104;DHT22;10710;53.398;-1.514;2022-11-20T02:09:06;8.40;99.90
21104;DHT22;10710;53.398;-1.514;2022-11-20T02:11:32;8.40;99.90
21104;DHT22;10710;53.398;-1.514;2022-11-20T02:13:58;8.40;99.90
21104;DHT22;10710;53.398;-1.514;2022-11-20T02:16:33;8.50;99.90
21104;DHT22;10710;53.398;-1.514;2022-11-20T02:19:02;8.40;99.90
21104;DHT22;10710;53.398;-1.514;2022-11-20T02:21:37;8.40;99.90
21104;DHT22;10710;53.398;-1.514;2022-11-20T02:24:10;8.40;99.90
21104;DHT22;10710;53.398;-1.514;2022-11-20T02:29:39;8.40;99.90
21104;DHT22;10710;53.398;-1.514;2022-11-20T02:32:16;8.40;99.90
21104;DHT22;10710;53.398;-1.514;2022-11-20T02:34:42;8.40;99.90
21104;DHT22;10710;53.398;-1.514;2022-11-20T02:37:08;8.40;99.90
21104;DHT22;10710;53.398;-1.514;2022-11-20T02:39:34;8.40;99.90
21104;DHT22;10710;53.398;-1.514;2022-11-20T02:42:01;8.40;99.90
21104;DHT22;10710;53.398;-1.514;2022-11-20T02:44:27;8.30;99.90
21104;DHT22;10710;53.398;-1.514;2022-11-20T02:46:57;8.30;99.90
21104;DHT22;10710;53.398;-1.514;2022-11-20T02:49:24;8.30;99.90
21104;DHT22;10710;53.398;-1.514;2022-11-20T02:51:50;8.40;99.90
21104;DHT22;10710;53.398;-1.514;2022-11-20T02:54:16;8.30;99.90
21104;DHT22;10710;53.398;-1.514;2022-11-20T02:56:42;8.30;99.90
21104;DHT22;10710;53.398;-1.514;2022-11-20T02:59:09;8.30;99.90
21104;DHT22;10710;53.398;-1.514;2022-11-20T03:01:35;8.30;99.90
21104;DHT22;10710;53.398;-1.514;2022-11-20T03:04:02;8.40;99.90
21104;DHT22;10710;53.398;-1.514;2022-11-20T03:06:28;8.40;99.90
21104;DHT22;10710;53.398;-1.514;2022-11-20T03:08:54;8.30;99.90
21104;DHT22;10710;53.398;-1.514;2022-11-20T03:11:20;8.30;99.90
21104;DHT22;10710;53.398;-1.514;2022-11-20T03:13:46;8.40;99.90
21104;DHT22;10710;53.398;-1.514;2022-11-20T03:16:16;8.30;99.90
21104;DHT22;10710;53.398;-1.514;2022-11-20T03:18:42;8.50;99.90
21104;DHT22;10710;53.398;-1.514;2022-11-20T03:21:09;8.30;99.90
21104;DHT22;10710;53.398;-1.514;2022-11-20T03:23:36;8.30;99.90
21104;DHT22;10710;53.398;-1.514;2022-11-20T03:28:37;8.40;99.90
21104;DHT22;10710;53.398;-1.514;2022-11-20T03:31:12;8.40;99.90
21104;DHT22;10710;53.398;-1.514;2022-11-20T03:33:39;8.30;99.90
21104;DHT22;10710;53.398;-1.514;2022-11-20T03:36:07;8.20;99.90
21104;DHT22;10710;53.398;-1.514;2022-11-20T03:38:33;8.20;99.90
21104;DHT22;10710;53.398;-1.514;2022-11-20T03:41:08;8.30;99.90
21104;DHT22;10710;53.398;-1.514;2022-11-20T03:43:34;8.30;99.90
21104;DHT22;10710;53.398;-1.514;2022-11-20T03:46:01;8.20;99.90
21104;DHT22;10710;53.398;-1.514;2022-11-20T03:48:27;8.10;99.90
21104;DHT22;10710;53.398;-1.514;2022-11-20T03:51:06;8.20;99.90
21104;DHT22;10710;53.398;-1.514;2022-11-20T03:53:32;8.20;99.90
21104;DHT22;10710;53.398;-1.514;2022-11-20T03:55:58;8.20;99.90
21104;DHT22;10710;53.398;-1.514;2022-11-20T03:58:24;8.30;99.90
21104;DHT22;10710;53.398;-1.514;2022-11-20T04:00:50;8.30;99.90
21104;DHT22;10710;53.398;-1.514;2022-11-20T04:03:16;8.30;99.90
21104;DHT22;10710;53.398;-1.514;2022-11-20T04:05:41;8.30;99.90
21104;DHT22;10710;53.398;-1.514;2022-11-20T04:08:07;8.30;99.90
21104;DHT22;10710;53.398;-1.514;2022-11-20T04:10:33;8.30;99.90
21104;DHT22;10710;53.398;-1.514;2022-11-20T04:12:59;8.20;99.90
21104;DHT22;10710;53.398;-1.514;2022-11-20T04:15:25;8.30;99.90
21104;DHT22;10710;53.398;-1.514;2022-11-20T04:17:51;8.30;99.90
21104;DHT22;10710;53.398;-1.514;2022-11-20T04:20:17;8.30;99.90
21104;DHT22;10710;53.398;-1.514;2022-11-20T04:22:42;8.30;99.90
21104;DHT22;10710;53.398;-1.514;2022-11-20T04:25:09;8.20;99.90
21104;DHT22;10710;53.398;-1.514;2022-11-20T04:27:35;8.30;99.90
21104;DHT22;10710;53.398;-1.514;2022-11-20T04:30:01;8.20;99.90
21104;DHT22;10710;53.398;-1.514;2022-11-20T04:32:28;8.30;99.90
21104;DHT22;10710;53.398;-1.514;2022-11-20T04:34:53;8.20;99.90
21104;DHT22;10710;53.398;-1.514;2022-11-20T04:37:19;8.20;99.90
21104;DHT22;10710;53.398;-1.514;2022-11-20T04:39:45;8.20;99.90
21104;DHT22;10710;53.398;-1.514;2022-11-20T04:42:11;8.30;99.90
21104;DHT22;10710;53.398;-1.514;2022-11-20T04:44:56;8.30;99.90
21104;DHT22;10710;53.398;-1.514;2022-11-20T04:47:22;8.30;99.90
21104;DHT22;10710;53.398;-1.514;2022-11-20T04:49:48;8.30;99.90
21104;DHT22;10710;53.398;-1.514;2022-11-20T04:52:14;8.30;99.90
21104;DHT22;10710;53.398;-1.514;2022-11-20T04:54:40;8.30;99.90
21104;DHT22;10710;53.398;-1.514;2022-11-20T04:57:06;8.30;99.90
21104;DHT22;10710;53.398;-1.514;2022-11-20T04:59:32;8.40;99.90
21104;DHT22;10710;53.398;-1.514;2022-11-20T05:01:58;8.40;99.90
21104;DHT22;10710;53.398;-1.514;2022-11-20T05:04:24;8.20;99.90
21104;DHT22;10710;53.398;-1.514;2022-11-20T05:06:50;8.30;99.90
21104;DHT22;10710;53.398;-1.514;2022-11-20T05:09:16;8.20;99.90
21104;DHT22;10710;53.398;-1.514;2022-11-20T05:11:42;8.30;99.90
21104;DHT22;10710;53.398;-1.514;2022-11-20T05:14:08;8.30;99.90
21104;DHT22;10710;53.398;-1.514;2022-11-20T05:16:34;8.30;99.90
21104;DHT22;10710;53.398;-1.514;2022-11-20T05:19:01;8.30;99.90
21104;DHT22;10710;53.398;-1.514;2022-11-20T05:21:29;8.40;99.90
21104;DHT22;10710;53.398;-1.514;2022-11-20T05:23:55;8.40;99.90
21104;DHT22;10710;53.398;-1.514;2022-11-20T05:26:22;8.40;99.90
21104;DHT22;10710;53.398;-1.514;2022-11-20T05:28:49;8.40;99.90
21104;DHT22;10710;53.398;-1.514;2022-11-20T05:31:17;8.40;99.90
21104;DHT22;10710;53.398;-1.514;2022-11-20T05:33:44;8.40;99.90
21104;DHT22;10710;53.398;-1.514;2022-11-20T05:36:12;8.50;99.90
21104;DHT22;10710;53.398;-1.514;2022-11-20T05:38:39;8.40;99.90
21104;DHT22;10710;53.398;-1.514;2022-11-20T05:41:10;8.50;99.90
21104;DHT22;10710;53.398;-1.514;2022-11-20T05:43:38;8.40;99.90
21104;DHT22;10710;53.398;-1.514;2022-11-20T05:46:05;8.40;99.90
21104;DHT22;10710;53.398;-1.514;2022-11-20T05:48:32;8.40;99.90
21104;DHT22;10710;53.398;-1.514;2022-11-20T05:50:59;8.40;99.90
21104;DHT22;10710;53.398;-1.514;2022-11-20T05:53:25;8.50;99.90
21104;DHT22;10710;53.398;-1.514;2022-11-20T05:56:15;8.40;99.90
21104;DHT22;10710;53.398;-1.514;2022-11-20T05:58:42;8.50;99.90
21104;DHT22;10710;53.398;-1.514;2022-11-20T06:03:38;8.50;99.90
21104;DHT22;10710;53.398;-1.514;2022-11-20T06:06:05;8.40;99.90
21104;DHT22;10710;53.398;-1.514;2022-11-20T06:08:32;8.40;99.90
21104;DHT22;10710;53.398;-1.514;2022-11-20T06:10:58;8.50;99.90
21104;DHT22;10710;53.398;-1.514;2022-11-20T06:13:28;8.50;99.90
21104;DHT22;10710;53.398;-1.514;2022-11-20T06:15:54;8.60;99.90
21104;DHT22;10710;53.398;-1.514;2022-11-20T06:18:20;8.60;99.90
21104;DHT22;10710;53.398;-1.514;2022-11-20T06:20:46;8.40;99.90
21104;DHT22;10710;53.398;-1.514;2022-11-20T06:23:13;8.40;99.90
21104;DHT22;10710;53.398;-1.514;2022-11-20T06:25:40;8.40;99.90
21104;DHT22;10710;53.398;-1.514;2022-11-20T06:28:06;8.30;99.90
21104;DHT22;10710;53.398;-1.514;2022-11-20T06:30:33;8.30;99.90
21104;DHT22;10710;53.398;-1.514;2022-11-20T06:32:59;8.20;99.90
21104;DHT22;10710;53.398;-1.514;2022-11-20T06:35:25;8.20;99.90
21104;DHT22;10710;53.398;-1.514;2022-11-20T06:37:51;8.20;99.90
21104;DHT22;10710;53.398;-1.514;2022-11-20T06:40:16;8.10;99.90
21104;DHT22;10710;53.398;-1.514;2022-11-20T06:42:43;8.10;99.90
21104;DHT22;10710;53.398;-1.514;2022-11-20T06:45:09;8.20;99.90
21104;DHT22;10710;53.398;-1.514;2022-11-20T06:47:35;8.30;99.90
21104;DHT22;10710;53.398;-1.514;2022-11-20T06:50:01;8.30;99.90
21104;DHT22;10710;53.398;-1.514;2022-11-20T06:52:27;8.40;99.90
21104;DHT22;10710;53.398;-1.514;2022-11-20T06:54:53;8.40;99.90
21104;DHT22;10710;53.398;-1.514;2022-11-20T06:57:19;8.40;99.90
21104;DHT22;10710;53.398;-1.514;2022-11-20T06:59:45;8.40;99.90
21104;DHT22;10710;53.398;-1.514;2022-11-20T07:02:11;8.30;99.90
21104;DHT22;10710;53.398;-1.514;2022-11-20T07:04:38;8.30;99.90
21104;DHT22;10710;53.398;-1.514;2022-11-20T07:07:04;8.30;99.90
21104;DHT22;10710;53.398;-1.514;2022-11-20T07:09:33;8.20;99.90
21104;DHT22;10710;53.398;-1.514;2022-11-20T07:11:59;8.20;99.90
21104;DHT22;10710;53.398;-1.514;2022-11-20T07:14:25;8.20;99.90
21104;DHT22;10710;53.398;-1.514;2022-11-20T07:16:51;8.10;99.90
21104;DHT22;10710;53.398;-1.514;2022-11-20T07:19:17;8.10;99.90
21104;DHT22;10710;53.398;-1.514;2022-11-20T07:21:44;8.00;99.90
21104;DHT22;10710;53.398;-1.514;2022-11-20T07:24:10;8.10;99.90
21104;DHT22;10710;53.398;-1.514;2022-11-20T07:26:35;7.90;99.90
21104;DHT22;10710;53.398;-1.514;2022-11-20T07:29:01;8.00;99.90
21104;DHT22;10710;53.398;-1.514;2022-11-20T07:31:27;7.90;99.90
21104;DHT22;10710;53.398;-1.514;2022-11-20T07:33:53;7.90;99.90
21104;DHT22;10710;53.398;-1.514;2022-11-20T07:36:19;8.00;99.90
21104;DHT22;10710;53.398;-1.514;2022-11-20T07:38:45;8.10;99.90
21104;DHT22;10710;53.398;-1.514;2022-11-20T07:41:11;8.10;99.90
21104;DHT22;10710;53.398;-1.514;2022-11-20T07:43:37;8.20;99.90
21104;DHT22;10710;53.398;-1.514;2022-11-20T07:46:02;8.20;99.90
21104;DHT22;10710;53.398;-1.514;2022-11-20T07:48:29;8.10;99.90
21104;DHT22;10710;53.398;-1.514;2022-11-20T07:50:56;8.10;99.90
21104;DHT22;10710;53.398;-1.514;2022-11-20T07:53:23;8.00;99.90
21104;DHT22;10710;53.398;-1.514;2022-11-20T07:55:49;7.90;99.90
21104;DHT22;10710;53.398;-1.514;2022-11-20T07:58:18;7.90;99.90
21104;DHT22;10710;53.398;-1.514;2022-11-20T08:00:46;7.90;99.90
21104;DHT22;10710;53.398;-1.514;2022-11-20T08:03:12;7.90;99.90
21104;DHT22;10710;53.398;-1.514;2022-11-20T08:05:38;7.90;99.90
21104;DHT22;10710;53.398;-1.514;2022-11-20T08:08:04;7.90;99.90
21104;DHT22;10710;53.398;-1.514;2022-11-20T08:10:30;8.00;99.90
21104;DHT22;10710;53.398;-1.514;2022-11-20T08:12:56;8.00;99.90
21104;DHT22;10710;53.398;-1.514;2022-11-20T08:15:40;8.00;99.90
21104;DHT22;10710;53.398;-1.514;2022-11-20T08:18:08;8.00;99.90
21104;DHT22;10710;53.398;-1.514;2022-11-20T08:20:36;8.10;99.90
21104;DHT22;10710;53.398;-1.514;2022-11-20T08:23:04;8.10;99.90
21104;DHT22;10710;53.398;-1.514;2022-11-20T08:25:35;8.20;99.90
21104;DHT22;10710;53.398;-1.514;2022-11-20T08:28:07;8.30;99.90
21104;DHT22;10710;53.398;-1.514;2022-11-20T08:30:33;8.40;99.90
21104;DHT22;10710;53.398;-1.514;2022-11-20T08:33:07;8.30;99.90
21104;DHT22;10710;53.398;-1.514;2022-11-20T08:35:35;8.30;99.90
21104;DHT22;10710;53.398;-1.514;2022-11-20T08:38:03;8.40;99.90
21104;DHT22;10710;53.398;-1.514;2022-11-20T08:40:29;8.40;99.90
21104;DHT22;10710;53.398;-1.514;2022-11-20T08:42:55;8.50;99.90
21104;DHT22;10710;53.398;-1.514;2022-11-20T08:45:21;8.60;99.90
21104;DHT22;10710;53.398;-1.514;2022-11-20T08:47:48;8.60;99.90
21104;DHT22;10710;53.398;-1.514;2022-11-20T08:50:15;8.70;99.90
21104;DHT22;10710;53.398;-1.514;2022-11-20T08:52:42;8.70;99.90
21104;DHT22;10710;53.398;-1.514;2022-11-20T08:55:09;8.70;99.90
21104;DHT22;10710;53.398;-1.514;2022-11-20T08:57:36;8.80;99.90
21104;DHT22;10710;53.398;-1.514;2022-11-20T09:00:04;8.80;99.90
21104;DHT22;10710;53.398;-1.514;2022-11-20T09:02:30;8.90;99.90
21104;DHT22;10710;53.398;-1.514;2022-11-20T09:04:58;8.90;99.90
21104;DHT22;10710;53.398;-1.514;2022-11-20T09:07:24;8.90;99.90
21104;DHT22;10710;53.398;-1.514;2022-11-20T09:09:50;9.00;99.90
21104;DHT22;10710;53.398;-1.514;2022-11-20T09:12:16;9.00;99.90
21104;DHT22;10710;53.398;-1.514;2022-11-20T09:14:42;9.00;99.90
21104;DHT22;10710;53.398;-1.514;2022-11-20T09:17:10;9.00;99.90
21104;DHT22;10710;53.398;-1.514;2022-11-20T09:19:39;9.10;99.90
21104;DHT22;10710;53.398;-1.514;2022-11-20T09:22:06;9.20;99.90
21104;DHT22;10710;53.398;-1.514;2022-11-20T09:24:31;9.20;99.90
21104;DHT22;10710;53.398;-1.514;2022-11-20T09:26:57;9.20;99.90
21104;DHT22;10710;53.398;-1.514;2022-11-20T09:29:23;9.20;99.90
21104;DHT22;10710;53.398;-1.514;2022-11-20T09:31:50;9.20;99.90
21104;DHT22;10710;53.398;-1.514;2022-11-20T09:34:16;9.30;99.90
21104;DHT22;10710;53.398;-1.514;2022-11-20T09:36:41;9.30;99.90
21104;DHT22;10710;53.398;-1.514;2022-11-20T09:39:07;9.30;99.90
21104;DHT22;10710;53.398;-1.514;2022-11-20T09:52:59;9.50;99.90
21104;DHT22;10710;53.398;-1.514;2022-11-20T09:55:31;9.50;99.90
21104;DHT22;10710;53.398;-1.514;2022-11-20T09:57:59;9.50;99.90
21104;DHT22;10710;53.398;-1.514;2022-11-20T10:00:26;9.50;99.90
21104;DHT22;10710;53.398;-1.514;2022-11-20T10:05:21;9.60;99.90
21104;DHT22;10710;53.398;-1.514;2022-11-20T10:08:22;9.60;99.90
21104;DHT22;10710;53.398;-1.514;2022-11-20T10:21:55;10.10;99.90
21104;DHT22;10710;53.398;-1.514;2022-11-20T10:30:12;9.90;99.90
21104;DHT22;10710;53.398;-1.514;2022-11-20T10:32:58;9.80;99.90
21104;DHT22;10710;53.398;-1.514;2022-11-20T10:35:55;9.70;99.90
21104;DHT22;10710;53.398;-1.514;2022-11-20T10:39:06;9.70;99.90
21104;DHT22;10710;53.398;-1.514;2022-11-20T10:41:41;9.70;99.90
21104;DHT22;10710;53.398;-1.514;2022-11-20T10:44:28;9.70;99.90
21104;DHT22;10710;53.398;-1.514;2022-11-20T10:47:18;9.80;99.90
21104;DHT22;10710;53.398;-1.514;2022-11-20T10:49:50;9.80;99.90
21104;DHT22;10710;53.398;-1.514;2022-11-20T11:00:35;9.90;99.90
21104;DHT22;10710;53.398;-1.514;2022-11-20T11:03:01;10.00;99.90
21104;DHT22;10710;53.398;-1.514;2022-11-20T11:05:40;10.10;99.90
21104;DHT22;10710;53.398;-1.514;2022-11-20T11:08:13;10.10;99.90
21104;DHT22;10710;53.398;-1.514;2022-11-20T11:10:48;10.10;99.90
21104;DHT22;10710;53.398;-1.514;2022-11-20T11:13:26;10.10;99.90
21104;DHT22;10710;53.398;-1.514;2022-11-20T11:15:53;10.00;99.90
21104;DHT22;10710;53.398;-1.514;2022-11-20T11:18:30;9.90;99.90
21104;DHT22;10710;53.398;-1.514;2022-11-20T11:20:58;9.90;99.90
21104;DHT22;10710;53.398;-1.514;2022-11-20T11:23:40;9.90;99.90
21104;DHT22;10710;53.398;-1.514;2022-11-20T11:26:21;9.90;99.90
21104;DHT22;10710;53.398;-1.514;2022-11-20T11:28:59;9.80;99.90
21104;DHT22;10710;53.398;-1.514;2022-11-20T11:31:30;9.70;99.90
21104;DHT22;10710;53.398;-1.514;2022-11-20T11:36:33;9.80;99.90
21104;DHT22;10710;53.398;-1.514;2022-11-20T11:39:00;9.80;99.90
21104;DHT22;10710;53.398;-1.514;2022-11-20T11:41:31;9.80;99.90
21104;DHT22;10710;53.398;-1.514;2022-11-20T11:44:18;9.90;99.90
21104;DHT22;10710;53.398;-1.514;2022-11-20T11:47:08;10.00;99.90
21104;DHT22;10710;53.398;-1.514;2022-11-20T11:49:36;10.00;99.90
21104;DHT22;10710;53.398;-1.514;2022-11-20T11:52:03;10.00;99.90
21104;DHT22;10710;53.398;-1.514;2022-11-20T11:54:45;10.00;99.90
21104;DHT22;10710;53.398;-1.514;2022-11-20T12:00:16;10.10;99.90
21104;DHT22;10710;53.398;-1.514;2022-11-20T12:05:44;10.10;99.90
21104;DHT22;10710;53.398;-1.514;2022-11-20T12:16:13;10.30;99.90
21104;DHT22;10710;53.398;-1.514;2022-11-20T12:18:41;10.30;99.90
21104;DHT22;10710;53.398;-1.514;2022-11-20T12:21:26;10.30;99.90
21104;DHT22;10710;53.398;-1.514;2022-11-20T12:24:27;10.20;99.90
21104;DHT22;10710;53.398;-1.514;2022-11-20T12:30:15;10.10;99.90
21104;DHT22;10710;53.398;-1.514;2022-11-20T12:38:36;10.20;99.90
21104;DHT22;10710;53.398;-1.514;2022-11-20T12:41:27;10.30;99.90
21104;DHT22;10710;53.398;-1.514;2022-11-20T13:01:48;10.70;99.90
21104;DHT22;10710;53.398;-1.514;2022-11-20T13:07:12;10.80;99.90
21104;DHT22;10710;53.398;-1.514;2022-11-20T13:09:49;10.90;99.90
21104;DHT22;10710;53.398;-1.514;2022-11-20T13:12:30;10.90;99.90
21104;DHT22;10710;53.398;-1.514;2022-11-20T13:15:14;11.00;99.90
21104;DHT22;10710;53.398;-1.514;2022-11-20T13:20:18;11.00;99.90
21104;DHT22;10710;53.398;-1.514;2022-11-20T13:22:46;11.00;99.90
21104;DHT22;10710;53.398;-1.514;2022-11-20T13:27:49;11.10;99.90
21104;DHT22;10710;53.398;-1.514;2022-11-20T13:30:19;11.10;99.90
21104;DHT22;10710;53.398;-1.514;2022-11-20T13:33:37;11.10;99.90
21104;DHT22;10710;53.398;-1.514;2022-11-20T13:35:41;11.10;99.90
21104;DHT22;10710;53.398;-1.514;2022-11-20T13:38:13;11.10;99.90
21104;DHT22;10710;53.398;-1.514;2022-11-20T13:41:00;11.20;99.90
21104;DHT22;10710;53.398;-1.514;2022-11-20T13:43:49;11.20;99.90
21104;DHT22;10710;53.398;-1.514;2022-11-20T13:46:15;11.30;99.90
21104;DHT22;10710;53.398;-1.514;2022-11-20T13:48:43;11.20;99.90
21104;DHT22;10710;53.398;-1.514;2022-11-20T13:51:37;11.20;99.90
21104;DHT22;10710;53.398;-1.514;2022-11-20T14:02:17;10.90;99.90
21104;DHT22;10710;53.398;-1.514;2022-11-20T14:04:49;10.90;99.90
21104;DHT22;10710;53.398;-1.514;2022-11-20T14:07:18;10.90;99.90
21104;DHT22;10710;53.398;-1.514;2022-11-20T14:10:04;10.80;99.90
21104;DHT22;10710;53.398;-1.514;2022-11-20T14:12:32;10.80;99.90
21104;DHT22;10710;53.398;-1.514;2022-11-20T14:14:59;10.80;99.90
21104;DHT22;10710;53.398;-1.514;2022-11-20T14:19:55;10.80;99.90
21104;DHT22;10710;53.398;-1.514;2022-11-20T14:22:25;10.80;99.90
21104;DHT22;10710;53.398;-1.514;2022-11-20T14:27:40;10.70;99.90
21104;DHT22;10710;53.398;-1.514;2022-11-20T14:32:39;10.70;99.90
21104;DHT22;10710;53.398;-1.514;2022-11-20T14:35:17;10.70;99.90
21104;DHT22;10710;53.398;-1.514;2022-11-20T14:37:46;10.70;99.90
21104;DHT22;10710;53.398;-1.514;2022-11-20T14:40:29;10.70;99.90
21104;DHT22;10710;53.398;-1.514;2022-11-20T14:42:56;10.70;99.90
21104;DHT22;10710;53.398;-1.514;2022-11-20T14:45:24;10.80;99.90
21104;DHT22;10710;53.398;-1.514;2022-11-20T14:47:56;10.70;99.90
21104;DHT22;10710;53.398;-1.514;2022-11-20T14:50:27;10.80;99.90
21104;DHT22;10710;53.398;-1.514;2022-11-20T14:52:55;10.70;99.90
21104;DHT22;10710;53.398;-1.514;2022-11-20T14:55:40;10.60;99.90
21104;DHT22;10710;53.398;-1.514;2022-11-20T14:58:30;10.60;99.90
21104;DHT22;10710;53.398;-1.514;2022-11-20T15:01:02;10.70;99.90
21104;DHT22;10710;53.398;-1.514;2022-11-20T15:03:37;10.70;99.90
21104;DHT22;10710;53.398;-1.514;2022-11-20T15:06:05;10.70;99.90
21104;DHT22;10710;53.398;-1.514;2022-11-20T15:08:32;10.70;99.90
21104;DHT22;10710;53.398;-1.514;2022-11-20T15:10:58;10.60;99.90
21104;DHT22;10710;53.398;-1.514;2022-11-20T15:13:36;10.70;99.90
21104;DHT22;10710;53.398;-1.514;2022-11-20T15:16:17;10.60;99.90
21104;DHT22;10710;53.398;-1.514;2022-11-20T15:18:43;10.60;99.90
21104;DHT22;10710;53.398;-1.514;2022-11-20T15:21:15;10.60;99.90
21104;DHT22;10710;53.398;-1.514;2022-11-20T15:23:42;10.60;99.90
21104;DHT22;10710;53.398;-1.514;2022-11-20T15:26:10;10.50;99.90
21104;DHT22;10710;53.398;-1.514;2022-11-20T15:28:41;10.50;99.90
21104;DHT22;10710;53.398;-1.514;2022-11-20T15:31:17;10.60;99.90
21104;DHT22;10710;53.398;-1.514;2022-11-20T15:33:43;10.50;99.90
21104;DHT22;10710;53.398;-1.514;2022-11-20T15:36:09;10.50;99.90
21104;DHT22;10710;53.398;-1.514;2022-11-20T15:38:36;10.50;99.90
21104;DHT22;10710;53.398;-1.514;2022-11-20T15:41:02;10.50;99.90
21104;DHT22;10710;53.398;-1.514;2022-11-20T15:43:28;10.40;99.90
21104;DHT22;10710;53.398;-1.514;2022-11-20T15:45:58;10.30;99.90
21104;DHT22;10710;53.398;-1.514;2022-11-20T15:48:28;10.20;99.90
21104;DHT22;10710;53.398;-1.514;2022-11-20T15:53:36;10.10;99.90
21104;DHT22;10710;53.398;-1.514;2022-11-20T15:56:03;10.00;99.90
21104;DHT22;10710;53.398;-1.514;2022-11-20T15:58:29;9.90;99.90
21104;DHT22;10710;53.398;-1.514;2022-11-20T16:00:55;9.90;99.90
21104;DHT22;10710;53.398;-1.514;2022-11-20T16:03:22;9.80;99.90
21104;DHT22;10710;53.398;-1.514;2022-11-20T16:05:48;9.80;99.90
21104;DHT22;10710;53.398;-1.514;2022-11-20T16:08:15;9.70;99.90
21104;DHT22;10710;53.398;-1.514;2022-11-20T16:10:41;9.50;99.90
21104;DHT22;10710;53.398;-1.514;2022-11-20T16:13:15;9.40;99.90
21104;DHT22;10710;53.398;-1.514;2022-11-20T16:16:05;9.10;99.90
21104;DHT22;10710;53.398;-1.514;2022-11-20T16:18:32;8.80;99.90
21104;DHT22;10710;53.398;-1.514;2022-11-20T16:20:58;8.60;99.90
21104;DHT22;10710;53.398;-1.514;2022-11-20T16:23:24;8.50;99.90
21104;DHT22;10710;53.398;-1.514;2022-11-20T16:25:50;8.40;99.90
21104;DHT22;10710;53.398;-1.514;2022-11-20T16:28:17;8.30;99.90
21104;DHT22;10710;53.398;-1.514;2022-11-20T16:30:43;8.20;99.90
21104;DHT22;10710;53.398;-1.514;2022-11-20T16:33:11;8.20;99.90
21104;DHT22;10710;53.398;-1.514;2022-11-20T16:35:38;8.20;99.90
21104;DHT22;10710;53.398;-1.514;2022-11-20T16:38:05;8.30;99.90
21104;DHT22;10710;53.398;-1.514;2022-11-20T16:40:31;8.30;99.90
21104;DHT22;10710;53.398;-1.514;2022-11-20T16:42:57;8.10;99.90
21104;DHT22;10710;53.398;-1.514;2022-11-20T16:45:23;8.10;99.90
21104;DHT22;10710;53.398;-1.514;2022-11-20T16:47:49;8.00;99.90
21104;DHT22;10710;53.398;-1.514;2022-11-20T16:50:15;7.90;99.90
21104;DHT22;10710;53.398;-1.514;2022-11-20T16:52:42;7.90;99.90
21104;DHT22;10710;53.398;-1.514;2022-11-20T16:55:09;7.90;99.90
21104;DHT22;10710;53.398;-1.514;2022-11-20T16:57:36;7.90;99.90
21104;DHT22;10710;53.398;-1.514;2022-11-20T17:00:04;7.80;99.90
21104;DHT22;10710;53.398;-1.514;2022-11-20T17:02:30;7.80;99.90
21104;DHT22;10710;53.398;-1.514;2022-11-20T17:04:56;7.70;99.90
21104;DHT22;10710;53.398;-1.514;2022-11-20T17:07:22;7.60;99.90
21104;DHT22;10710;53.398;-1.514;2022-11-20T17:09:49;7.70;99.90
21104;DHT22;10710;53.398;-1.514;2022-11-20T17:12:14;7.60;99.90
21104;DHT22;10710;53.398;-1.514;2022-11-20T17:14:41;7.60;99.90
21104;DHT22;10710;53.398;-1.514;2022-11-20T17:17:07;7.60;99.90
21104;DHT22;10710;53.398;-1.514;2022-11-20T17:19:32;7.60;99.90
21104;DHT22;10710;53.398;-1.514;2022-11-20T17:21:59;7.60;99.90
21104;DHT22;10710;53.398;-1.514;2022-11-20T17:24:25;7.60;99.90
21104;DHT22;10710;53.398;-1.514;2022-11-20T17:26:51;7.60;99.90
21104;DHT22;10710;53.398;-1.514;2022-11-20T17:29:18;7.60;99.90
21104;DHT22;10710;53.398;-1.514;2022-11-20T17:31:49;7.60;99.90
21104;DHT22;10710;53.398;-1.514;2022-11-20T17:34:16;7.60;99.90
21104;DHT22;10710;53.398;-1.514;2022-11-20T17:36:42;7.60;99.90
21104;DHT22;10710;53.398;-1.514;2022-11-20T17:39:12;7.60;99.90
21104;DHT22;10710;53.398;-1.514;2022-11-20T17:41:39;7.70;99.90
21104;DHT22;10710;53.398;-1.514;2022-11-20T17:44:05;7.70;99.90
21104;DHT22;10710;53.398;-1.514;2022-11-20T17:46:32;7.60;99.90
21104;DHT22;10710;53.398;-1.514;2022-11-20T17:48:58;7.60;99.90